createdAt,value
2023-02-03T00:01:22.357Z,7.7
2023-02-03T00:03:26.235Z,7.7
2023-02-03T00:05:32.841Z,7.7
2023-02-03T00:07:36.671Z,7.7
2023-02-03T00:09:40.516Z,7.7
2023-02-03T00:14:13.965Z,7.8
2023-02-03T00:16:17.815Z,7.8
2023-02-03T00:18:24.458Z,7.8
2023-02-03T00:20:28.682Z,7.8
2023-02-03T00:22:32.148Z,7.8
2023-02-03T00:24:35.998Z,7.8
2023-02-03T00:26:39.841Z,7.8
2023-02-03T00:28:43.710Z,7.8
2023-02-03T00:30:47.535Z,7.8
2023-02-03T00:32:54.212Z,7.8
2023-02-03T00:34:58.065Z,7.8
2023-02-03T00:37:01.972Z,7.9
2023-02-03T00:39:05.788Z,7.8
2023-02-03T00:41:09.636Z,7.8
2023-02-03T00:43:13.476Z,7.8
2023-02-03T00:45:17.340Z,7.8
2023-02-03T00:47:24.014Z,7.8
2023-02-03T00:51:31.705Z,7.9
2023-02-03T00:59:47.123Z,7.9
2023-02-03T01:01:53.811Z,7.9
2023-02-03T01:03:57.650Z,7.9
2023-02-03T01:07:04.831Z,7.9
2023-02-03T01:09:08.672Z,7.9
2023-02-03T01:17:26.911Z,7.9
2023-02-03T01:19:30.759Z,7.9
2023-02-03T01:21:34.640Z,7.9
2023-02-03T01:23:38.466Z,7.9
2023-02-03T01:25:42.324Z,7.8
2023-02-03T01:27:46.255Z,7.8
2023-02-03T01:31:56.779Z,7.9
2023-02-03T01:36:04.397Z,7.9
2023-02-03T01:38:08.239Z,7.8
2023-02-03T01:40:12.096Z,7.8
2023-02-03T01:42:15.937Z,7.8
2023-02-03T01:44:22.625Z,7.8
2023-02-03T01:46:26.516Z,7.8
2023-02-03T01:48:30.284Z,7.8
2023-02-03T01:50:34.131Z,7.8
2023-02-03T01:52:37.972Z,7.8
2023-02-03T01:54:41.852Z,7.8
2023-02-03T01:56:45.691Z,7.8
2023-02-03T01:58:52.354Z,7.8
2023-02-03T02:00:56.226Z,7.9
2023-02-03T02:03:00.041Z,7.8
2023-02-03T02:06:07.349Z,7.9
2023-02-03T02:10:14.899Z,7.8
2023-02-03T02:12:21.561Z,7.8
2023-02-03T02:14:25.417Z,7.9
2023-02-03T02:16:29.266Z,7.9
2023-02-03T02:18:33.122Z,7.9
2023-02-03T02:20:36.953Z,7.8
2023-02-03T02:22:40.789Z,7.8
2023-02-03T02:24:44.647Z,7.8
2023-02-03T02:26:51.288Z,7.9
2023-02-03T02:30:59.087Z,7.8
2023-02-03T02:35:08.185Z,7.8
2023-02-03T02:37:12.002Z,7.8
2023-02-03T02:39:15.852Z,7.8
2023-02-03T02:41:22.523Z,7.8
2023-02-03T02:43:26.370Z,7.9
2023-02-03T02:45:30.239Z,7.9
2023-02-03T02:47:34.081Z,7.8
2023-02-03T02:49:37.937Z,7.8
2023-02-03T02:51:41.800Z,7.8
2023-02-03T02:53:45.623Z,7.8
2023-02-03T02:55:52.284Z,7.8
2023-02-03T02:57:56.148Z,7.8
2023-02-03T02:59:59.995Z,7.8
2023-02-03T03:03:07.194Z,7.9
2023-02-03T03:09:21.594Z,7.9
2023-02-03T03:11:25.427Z,7.9
2023-02-03T03:13:29.284Z,7.9
2023-02-03T03:15:33.190Z,7.9
2023-02-03T03:17:36.977Z,7.9
2023-02-03T03:19:40.842Z,7.9
2023-02-03T03:21:44.686Z,7.9
2023-02-03T03:23:51.359Z,7.9
2023-02-03T03:25:55.223Z,7.9
2023-02-03T03:27:59.136Z,7.9
2023-02-03T03:30:02.931Z,7.9
2023-02-03T03:34:10.630Z,8
2023-02-03T03:42:31.545Z,7.9
2023-02-03T03:44:32.701Z,7.9
2023-02-03T03:46:36.607Z,7.9
2023-02-03T03:48:40.397Z,8
2023-02-03T03:50:44.259Z,7.9
2023-02-03T03:52:50.965Z,8
2023-02-03T03:54:54.773Z,8
2023-02-03T03:56:58.642Z,8
2023-02-03T04:01:26.502Z,8
2023-02-03T04:03:30.325Z,8.1
2023-02-03T04:05:36.907Z,8.1
2023-02-03T04:07:40.751Z,8.1
2023-02-03T04:09:44.624Z,8.1
2023-02-03T04:11:48.472Z,8.1
2023-02-03T04:13:52.371Z,8.1
2023-02-03T04:15:56.236Z,8.2
2023-02-03T04:18:00.042Z,8.1
2023-02-03T04:20:06.717Z,8.1
2023-02-03T04:22:10.589Z,8.2
2023-02-03T04:24:14.560Z,8.2
2023-02-03T04:26:18.268Z,8.2
2023-02-03T04:28:22.129Z,8.2
2023-02-03T04:30:26.402Z,8.2
2023-02-03T04:44:55.821Z,8.3
2023-02-03T04:49:06.358Z,8.3
2023-02-03T04:53:15.921Z,8.3
2023-02-03T04:54:17.428Z,8.3
2023-02-03T04:56:21.293Z,8.3
2023-02-03T04:58:25.165Z,8.3
2023-02-03T05:00:29.400Z,8.2
2023-02-03T05:02:35.711Z,8.3
2023-02-03T05:06:43.431Z,8.3
2023-02-03T05:08:47.315Z,8.3
2023-02-03T05:10:51.175Z,8.3
2023-02-03T05:12:55.067Z,8.3
2023-02-03T05:17:05.598Z,8.4
2023-02-03T05:27:24.918Z,8.3
2023-02-03T05:29:28.799Z,8.3
2023-02-03T05:31:35.557Z,8.3
2023-02-03T05:33:39.339Z,8.3
2023-02-03T05:41:57.263Z,8.6
2023-02-03T05:43:58.656Z,8.6
2023-02-03T05:46:05.370Z,8.6
2023-02-03T05:48:09.207Z,8.7
2023-02-03T05:50:13.080Z,8.8
2023-02-03T05:51:16.412Z,8.9
2023-02-03T05:59:34.677Z,9
2023-02-03T06:01:38.545Z,9
2023-02-03T06:05:46.260Z,9.1
2023-02-03T06:11:57.855Z,9.1
2023-02-03T06:14:04.523Z,9.1
2023-02-03T06:16:08.424Z,9.1
2023-02-03T06:18:12.245Z,9.1
2023-02-03T06:20:16.113Z,9.1
2023-02-03T06:22:19.966Z,9.1
2023-02-03T06:24:23.836Z,9.1
2023-02-03T06:26:27.714Z,9.1
2023-02-03T06:28:34.376Z,9.1
2023-02-03T06:30:38.312Z,9.1
2023-02-03T06:32:42.093Z,9.1
2023-02-03T06:34:45.969Z,9
2023-02-03T06:36:49.829Z,9.1
2023-02-03T06:40:57.565Z,9.1
2023-02-03T06:43:04.274Z,9.1
2023-02-03T06:45:08.091Z,9.2
2023-02-03T06:48:15.292Z,9.2
2023-02-03T06:50:19.151Z,9.2
2023-02-03T06:52:23.135Z,9.2
2023-02-03T06:54:26.865Z,9.2
2023-02-03T06:56:33.540Z,9.2
2023-02-03T06:58:37.409Z,9.2
2023-02-03T07:00:41.272Z,9.2
2023-02-03T07:02:45.194Z,9.1
2023-02-03T07:04:48.997Z,9.1
2023-02-03T07:06:52.860Z,9.1
2023-02-03T07:08:56.718Z,9.1
2023-02-03T07:11:03.381Z,9.1
2023-02-03T07:13:07.279Z,9.1
2023-02-03T07:15:11.106Z,9.2
2023-02-03T07:17:14.985Z,9.2
2023-02-03T07:19:18.827Z,9.2
2023-02-03T07:21:22.677Z,9.2
2023-02-03T07:23:26.550Z,9.1
2023-02-03T07:25:33.224Z,9.2
2023-02-03T07:29:40.954Z,9.2
2023-02-03T07:31:44.968Z,9.1
2023-02-03T07:33:48.670Z,9.2
2023-02-03T07:37:56.403Z,9.1
2023-02-03T07:42:06.938Z,9.1
2023-02-03T07:44:10.800Z,9.1
2023-02-03T07:46:32.834Z,9.1
2023-02-03T07:48:36.755Z,9.1
2023-02-03T07:50:40.493Z,9.1
2023-02-03T07:52:47.161Z,9.1
2023-02-03T07:54:51.002Z,9.1
2023-02-03T07:56:54.878Z,9.1
2023-02-03T07:58:58.739Z,9.1
2023-02-03T08:01:02.594Z,9.2
2023-02-03T08:03:06.473Z,9.2
2023-02-03T08:07:17.047Z,9.2
2023-02-03T08:09:20.873Z,9.2
2023-02-03T08:11:24.730Z,9.2
2023-02-03T08:13:28.579Z,9.2
2023-02-03T08:15:32.450Z,9.2
2023-02-03T08:17:36.310Z,9.2
2023-02-03T08:19:40.181Z,9.2
2023-02-03T08:21:46.873Z,9.2
2023-02-03T08:23:50.703Z,9.2
2023-02-03T08:25:54.573Z,9.3
2023-02-03T08:27:58.502Z,9.3
2023-02-03T08:30:02.330Z,9.3
2023-02-03T08:32:07.722Z,9.3
2023-02-03T08:34:11.507Z,9.3
2023-02-03T08:36:18.183Z,9.4
2023-02-03T08:38:22.058Z,9.3
2023-02-03T08:40:26.410Z,9.4
2023-02-03T08:41:29.256Z,9.4
2023-02-03T08:43:33.140Z,9.4
2023-02-03T08:45:37.052Z,9.4
2023-02-03T08:47:40.843Z,9.4
2023-02-03T08:49:47.529Z,9.4
2023-02-03T08:53:55.240Z,9.4
2023-02-03T09:00:06.846Z,9.5
2023-02-03T09:04:17.412Z,9.4
2023-02-03T09:08:25.136Z,9.5
2023-02-03T09:14:36.746Z,9.5
2023-02-03T09:18:47.343Z,9.5
2023-02-03T09:22:55.103Z,9.5
2023-02-03T09:24:58.914Z,9.5
2023-02-03T09:27:02.773Z,9.6
2023-02-03T09:29:06.626Z,9.6
2023-02-03T09:31:10.561Z,9.6
2023-02-03T09:37:24.972Z,9.6
2023-02-03T09:38:28.283Z,9.6
2023-02-03T09:40:32.139Z,9.6
2023-02-03T09:42:36.026Z,9.6
2023-02-03T09:44:39.905Z,9.7
2023-02-03T09:46:46.768Z,9.7
2023-02-03T09:48:50.455Z,9.7
2023-02-03T09:50:54.323Z,9.8
2023-02-03T09:52:58.202Z,9.8
2023-02-03T09:55:02.203Z,9.9
2023-02-03T09:57:05.954Z,9.9
2023-02-03T10:01:16.512Z,9.8
2023-02-03T10:03:20.399Z,9.9
2023-02-03T10:05:24.264Z,9.8
2023-02-03T10:07:28.332Z,9.9
2023-02-03T10:09:32.013Z,9.9
2023-02-03T10:11:35.920Z,9.9
2023-02-03T10:13:39.776Z,9.9
2023-02-03T10:15:46.440Z,9.9
2023-02-03T10:21:58.073Z,10
2023-02-03T10:26:05.834Z,10
2023-02-03T10:30:16.382Z,10.1
2023-02-03T10:32:20.261Z,10.1
2023-02-03T10:34:24.165Z,10.1
2023-02-03T10:35:27.517Z,10.1
2023-02-03T10:37:31.363Z,10.1
2023-02-03T10:39:35.241Z,10.1
2023-02-03T10:41:39.139Z,10.2
2023-02-03T10:43:45.881Z,10.2
2023-02-03T10:45:49.684Z,10.2
2023-02-03T10:47:53.642Z,10.2
2023-02-03T10:49:57.482Z,10.2
2023-02-03T10:52:01.298Z,10.2
2023-02-03T10:54:05.204Z,10.2
2023-02-03T10:56:09.064Z,10.2
2023-02-03T10:58:15.817Z,10.2
2023-02-03T11:00:22.185Z,10.3
2023-02-03T11:02:23.571Z,10.3
2023-02-03T11:04:27.477Z,10.3
2023-02-03T11:06:31.291Z,10.3
2023-02-03T11:08:35.189Z,10.3
2023-02-03T11:10:39.177Z,10.3
2023-02-03T11:12:46.099Z,10.3
2023-02-03T11:14:49.983Z,10.3
2023-02-03T11:16:53.846Z,10.3
2023-02-03T11:18:57.741Z,10.3
2023-02-03T11:21:01.639Z,10.4
2023-02-03T11:23:05.533Z,10.3
2023-02-03T11:25:09.429Z,10.3
2023-02-03T11:27:16.154Z,10.3
2023-02-03T11:29:21.712Z,10.3
2023-02-03T11:35:57.444Z,10
2023-02-03T11:38:01.260Z,10
2023-02-03T11:40:07.985Z,9.9
2023-02-03T11:42:11.841Z,9.9
2023-02-03T11:44:15.907Z,9.8
2023-02-03T11:46:19.681Z,9.5
2023-02-03T11:48:23.473Z,9.5
2023-02-03T11:50:27.763Z,9.4
2023-02-03T11:52:31.259Z,9.3
2023-02-03T11:54:38.111Z,9.3
2023-02-03T11:56:41.811Z,9.3
2023-02-03T11:58:45.697Z,9.3
2023-02-03T12:00:49.554Z,9.3
2023-02-03T12:04:59.769Z,9.4
2023-02-03T12:13:15.597Z,9.4
2023-02-03T12:15:19.496Z,9.4
2023-02-03T12:17:23.876Z,9.4
2023-02-03T12:19:27.217Z,9.4
2023-02-03T12:23:37.779Z,9.5
2023-02-03T12:27:45.643Z,9.6
2023-02-03T12:28:48.850Z,9.6
2023-02-03T12:30:52.754Z,9.6
2023-02-03T12:32:56.586Z,9.6
2023-02-03T12:35:00.461Z,9.6
2023-02-03T12:37:07.141Z,9.6
2023-02-03T12:41:14.866Z,9.6
2023-02-03T12:43:18.776Z,9.6
2023-02-03T12:45:22.641Z,9.6
2023-02-03T12:49:30.382Z,9.6
2023-02-03T12:51:37.063Z,9.7
2023-02-03T12:53:40.932Z,9.7
2023-02-03T12:55:44.814Z,9.7
2023-02-03T12:57:48.675Z,9.7
2023-02-03T12:59:52.594Z,9.6
2023-02-03T13:01:56.455Z,9.7
2023-02-03T13:04:00.299Z,9.7
2023-02-03T13:06:07.009Z,9.8
2023-02-03T13:10:14.845Z,9.7
2023-02-03T13:12:18.601Z,9.7
2023-02-03T13:14:22.485Z,9.7
2023-02-03T13:16:26.480Z,9.7
2023-02-03T13:18:30.249Z,9.7
2023-02-03T13:20:36.917Z,9.6
2023-02-03T13:24:44.664Z,9.6
2023-02-03T13:25:48.002Z,9.6
2023-02-03T13:27:51.935Z,9.6
2023-02-03T13:29:55.756Z,9.6
2023-02-03T13:31:59.668Z,9.6
2023-02-03T13:34:06.333Z,9.6
2023-02-03T13:36:10.206Z,9.6
2023-02-03T13:38:14.057Z,9.5
2023-02-03T13:44:26.593Z,9.5
2023-02-03T13:46:30.498Z,9.5
2023-02-03T13:48:37.156Z,9.6
2023-02-03T13:50:41.032Z,9.5
2023-02-03T13:52:44.918Z,9.6
2023-02-03T13:54:48.891Z,9.5
2023-02-03T13:56:52.686Z,9.5
2023-02-03T13:58:56.534Z,9.5
2023-02-03T14:01:00.396Z,9.5
2023-02-03T14:03:07.100Z,9.4
2023-02-03T14:05:10.965Z,9.4
2023-02-03T14:07:14.840Z,9.5
2023-02-03T14:09:18.698Z,9.5
2023-02-03T14:11:22.587Z,9.4
2023-02-03T14:13:26.437Z,9.5
2023-02-03T14:15:30.722Z,9.5
2023-02-03T14:17:36.977Z,9.4
2023-02-03T14:19:40.847Z,9.4
2023-02-03T14:21:44.709Z,9.4
2023-02-03T14:22:48.109Z,9.4
2023-02-03T14:24:51.929Z,9.5
2023-02-03T14:26:55.890Z,9.5
2023-02-03T14:33:11.668Z,9.4
2023-02-03T14:39:23.298Z,9.3
2023-02-03T14:43:31.062Z,9.3
2023-02-03T14:47:41.562Z,9.3
2023-02-03T14:49:45.479Z,9.3
2023-02-03T14:53:53.177Z,9.3
2023-02-03T15:02:11.442Z,9.2
2023-02-03T15:04:15.325Z,9.2
2023-02-03T15:08:23.064Z,9.2
2023-02-03T15:12:30.819Z,9.1
2023-02-03T15:14:37.503Z,9.1
2023-02-03T15:16:41.357Z,9.1
2023-02-03T15:18:45.269Z,9
2023-02-03T15:21:14.756Z,9
2023-02-03T15:23:18.694Z,9
2023-02-03T15:25:22.508Z,9
2023-02-03T15:27:29.215Z,9
2023-02-03T15:29:33.068Z,8.9
2023-02-03T15:33:40.796Z,8.9
2023-02-03T15:35:44.657Z,8.9
2023-02-03T15:37:48.533Z,8.9
2023-02-03T15:39:52.387Z,8.8
2023-02-03T15:41:59.056Z,8.8
2023-02-03T15:44:02.943Z,8.8
2023-02-03T15:46:06.840Z,8.8
2023-02-03T15:48:10.653Z,8.8
2023-02-03T15:50:14.518Z,8.8
2023-02-03T15:52:18.393Z,8.7
2023-02-03T15:54:22.255Z,8.7
2023-02-03T15:56:28.929Z,8.7
2023-02-03T15:58:32.803Z,8.7
2023-02-03T16:00:36.676Z,8.7
2023-02-03T16:02:40.555Z,8.7
2023-02-03T16:04:45.072Z,8.6
2023-02-03T16:06:48.296Z,8.6
2023-02-03T16:08:52.097Z,8.6
2023-02-03T16:10:58.784Z,8.6
2023-02-03T16:13:02.618Z,8.5
2023-02-03T16:16:09.980Z,8.5
2023-02-03T16:18:13.663Z,8.5
2023-02-03T16:20:17.519Z,8.5
2023-02-03T16:22:21.374Z,8.5
2023-02-03T16:24:28.062Z,8.4
2023-02-03T16:26:31.899Z,8.4
2023-02-03T16:28:35.745Z,8.4
2023-02-03T16:30:39.653Z,8.4
2023-02-03T16:32:43.444Z,8.4
2023-02-03T16:36:51.039Z,8.4
2023-02-03T16:38:57.714Z,8.3
2023-02-03T16:41:01.591Z,8.3
2023-02-03T16:43:05.430Z,8.3
2023-02-03T16:45:09.272Z,8.4
2023-02-03T16:47:13.144Z,8.3
2023-02-03T16:49:16.981Z,8.2
2023-02-03T16:51:20.808Z,8.2
2023-02-03T16:59:39.036Z,8.2
2023-02-03T17:01:42.932Z,8.2
2023-02-03T17:05:50.599Z,8.2
2023-02-03T17:10:01.128Z,8.1
2023-02-03T17:12:04.969Z,8.1
2023-02-03T17:15:12.180Z,8.1
2023-02-03T17:17:16.007Z,8
2023-02-03T17:19:19.860Z,8
2023-02-03T17:21:26.554Z,8
2023-02-03T17:23:30.420Z,8
2023-02-03T17:25:34.253Z,8
2023-02-03T17:27:38.151Z,8
2023-02-03T17:29:41.944Z,8
2023-02-03T17:31:45.872Z,7.9
2023-02-03T17:33:49.629Z,7.9
2023-02-03T17:35:56.303Z,7.8
2023-02-03T17:53:34.907Z,7.6
2023-02-03T17:54:33.728Z,7.6
2023-02-03T17:58:41.416Z,7.6
2023-02-03T18:00:45.224Z,7.5
2023-02-03T18:02:49.072Z,7.5
2023-02-03T18:04:55.738Z,7.4
2023-02-03T18:06:59.553Z,7.4
2023-02-03T18:09:03.400Z,7.4
2023-02-03T18:10:06.722Z,7.5
2023-02-03T18:12:10.559Z,7.5
2023-02-03T18:14:14.390Z,7.5
2023-02-03T18:16:18.346Z,7.4
2023-02-03T18:18:24.878Z,7.4
2023-02-03T18:20:28.961Z,7.4
2023-02-03T18:22:32.543Z,7.4
2023-02-03T18:24:36.356Z,7.4
2023-02-03T18:26:40.198Z,7.5
2023-02-03T18:28:44.031Z,7.5
2023-02-03T18:30:47.935Z,7.5
2023-02-03T18:32:54.524Z,7.5
2023-02-03T18:34:58.355Z,7.4
2023-02-03T18:41:09.824Z,7.5
2023-02-03T18:43:13.661Z,7.5
2023-02-03T18:51:31.825Z,7.5
2023-02-03T18:55:39.482Z,7.4
2023-02-03T18:57:43.281Z,7.5
2023-02-03T18:59:47.121Z,7.5
2023-02-03T19:01:53.741Z,7.5
2023-02-03T19:03:57.546Z,7.5
2023-02-03T19:08:30.913Z,7.5
2023-02-03T19:10:34.728Z,7.5
2023-02-03T19:12:38.580Z,7.5
2023-02-03T19:14:45.212Z,7.5
2023-02-03T19:16:49.043Z,7.5
2023-02-03T19:18:52.888Z,7.5
2023-02-03T19:23:00.543Z,7.5
2023-02-03T19:25:04.374Z,7.5
2023-02-03T19:27:08.221Z,7.5
2023-02-03T19:31:18.784Z,7.5
2023-02-03T19:33:22.528Z,7.5
2023-02-03T19:39:34.036Z,7.6
2023-02-03T19:41:37.859Z,7.6
2023-02-03T19:43:45.762Z,7.7
2023-02-03T19:45:48.336Z,7.7
2023-02-03T19:47:52.189Z,7.7
2023-02-03T19:49:56.410Z,7.7
2023-02-03T19:54:04.078Z,7.7
2023-02-03T19:56:07.898Z,7.7
2023-02-03T19:58:14.537Z,7.7
2023-02-03T20:00:18.413Z,7.7
2023-02-03T20:02:22.299Z,7.7
2023-02-03T20:03:25.556Z,7.7
2023-02-03T20:05:29.375Z,7.7
2023-02-03T20:11:43.693Z,7.8
2023-02-03T20:13:47.534Z,7.8
2023-02-03T20:15:51.468Z,7.8
2023-02-03T20:19:59.030Z,7.8
2023-02-03T20:26:14.820Z,7.8
2023-02-03T20:28:18.667Z,7.8
2023-02-03T20:30:22.474Z,7.8
2023-02-03T20:34:30.163Z,7.8
2023-02-03T20:36:33.978Z,7.8
2023-02-03T20:38:37.818Z,7.8
2023-02-03T20:40:44.460Z,7.8
2023-02-03T20:42:48.294Z,7.8
2023-02-03T20:48:59.783Z,7.9
2023-02-03T20:51:03.638Z,7.8
2023-02-03T20:53:07.447Z,7.8
2023-02-03T20:55:14.103Z,7.9
2023-02-03T20:57:17.949Z,7.9
2023-02-03T20:59:21.789Z,7.8
2023-02-03T21:00:25.104Z,7.9
2023-02-03T21:02:28.931Z,7.9
2023-02-03T21:08:43.270Z,7.8
2023-02-03T21:12:50.943Z,7.8
2023-02-03T21:16:58.629Z,7.8
2023-02-03T21:23:12.928Z,7.7
2023-02-03T21:25:16.748Z,7.7
2023-02-03T21:29:24.432Z,7.7
2023-02-03T21:31:28.440Z,7.7
2023-02-03T21:33:32.083Z,7.7
2023-02-03T21:35:35.943Z,7.7
2023-02-03T21:41:50.261Z,7.6
2023-02-03T21:48:01.789Z,7.6
2023-02-03T21:52:12.282Z,7.6
2023-02-03T21:54:16.129Z,7.6
2023-02-03T21:56:19.976Z,7.6
2023-02-03T21:59:27.141Z,7.6
2023-02-03T22:01:31.030Z,7.6
2023-02-03T22:03:34.856Z,7.6
2023-02-03T22:05:41.461Z,7.6
2023-02-03T22:07:45.306Z,7.6
2023-02-03T22:09:49.148Z,7.6
2023-02-03T22:11:52.971Z,7.6
2023-02-03T22:13:56.814Z,7.5
2023-02-03T22:16:00.641Z,7.5
2023-02-03T22:18:04.466Z,7.5
2023-02-03T22:20:11.125Z,7.5
2023-02-03T22:22:14.948Z,7.5
2023-02-03T22:24:18.799Z,7.5
2023-02-03T22:26:22.632Z,7.5
2023-02-03T22:28:26.453Z,7.5
2023-02-03T22:30:30.697Z,7.5
2023-02-03T22:32:34.140Z,7.5
2023-02-03T22:34:40.793Z,7.5
2023-02-03T22:36:44.606Z,7.5
2023-02-03T22:38:48.433Z,7.5
2023-02-03T22:40:52.258Z,7.5
2023-02-03T22:42:56.098Z,7.5
2023-02-03T22:44:59.934Z,7.5
2023-02-03T22:47:03.749Z,7.4
2023-02-03T22:49:10.434Z,7.4
2023-02-03T22:51:14.239Z,7.4
2023-02-03T22:53:18.063Z,7.4
2023-02-03T22:57:51.434Z,7.4
2023-02-03T22:59:55.266Z,7.4
2023-02-03T23:02:01.915Z,7.4
2023-02-03T23:04:05.723Z,7.4
2023-02-03T23:06:09.568Z,7.3
2023-02-03T23:08:13.383Z,7.3
2023-02-03T23:10:17.577Z,7.3
2023-02-03T23:12:21.057Z,7.4
2023-02-03T23:14:24.863Z,7.3
2023-02-03T23:16:31.532Z,7.4
2023-02-03T23:20:39.155Z,7.4
2023-02-03T23:24:46.807Z,7.3
2023-02-03T23:26:50.629Z,7.3
2023-02-03T23:35:08.786Z,7.3
2023-02-03T23:37:12.582Z,7.3
2023-02-03T23:39:16.417Z,7.2
2023-02-03T23:41:20.250Z,7.2
2023-02-03T23:45:30.717Z,7.2
2023-02-03T23:47:34.534Z,7.2
2023-02-03T23:49:38.346Z,7.2
2023-02-03T23:54:49.321Z,7.2
